Time,TemperatureF,DewpointF,PressureIn,WindDirection,WindDirectionDegrees,WindSpeedMPH,WindSpeedGustMPH,Humidity,HourlyPrecipIn,Conditions,Clouds,dailyrainin,SoftwareType,DateUTC
2013-03-24 00:00:00,73.6,64.4,30.03,SE,141,0.0,0.0,73,0.00,,---,0.04,VWS V14.01,2013-03-24 04:00:00,
2013-03-24 00:01:00,73.4,64.2,30.03,SE,141,0.0,0.0,73,0.00,,---,0.00,VWS V14.01,2013-03-24 04:01:00,
2013-03-24 00:02:00,73.4,64.2,30.03,SE,141,0.0,0.0,73,0.00,,---,0.00,VWS V14.01,2013-03-24 04:02:00,
2013-03-24 00:07:00,73.4,64.6,30.03,SE,141,0.0,0.0,74,0.00,,---,0.00,VWS V14.01,2013-03-24 04:07:00,
2013-03-24 00:12:00,73.4,64.2,30.03,SE,141,0.0,0.0,73,0.00,,---,0.00,VWS V14.01,2013-03-24 04:12:00,
2013-03-24 00:17:00,72.9,63.7,30.03,SE,141,0.0,0.0,73,0.00,,---,0.00,VWS V14.01,2013-03-24 04:17:00,
2013-03-24 00:22:00,72.7,63.9,30.03,SE,141,0.0,0.0,74,0.00,,---,0.00,VWS V14.01,2013-03-24 04:22:00,
2013-03-24 00:27:00,72.5,63.4,30.03,SE,141,0.0,0.0,73,0.00,,---,0.00,VWS V14.01,2013-03-24 04:27:00,
2013-03-24 00:32:00,72.3,63.6,30.03,SE,141,0.0,0.0,74,0.00,,---,0.00,VWS V14.01,2013-03-24 04:32:00,
2013-03-24 00:38:00,72.3,64.3,30.03,SE,142,0.0,0.0,76,0.00,,---,0.00,VWS V14.01,2013-03-24 04:38:00,
2013-03-24 00:43:00,72.9,65.2,30.03,SE,143,0.0,0.0,77,0.00,,---,0.00,VWS V14.01,2013-03-24 04:43:00,
2013-03-24 00:48:00,73.2,66.0,30.03,South,173,0.0,0.0,78,0.00,,---,0.00,VWS V14.01,2013-03-24 04:48:00,
2013-03-24 00:53:00,73.8,65.7,30.03,SE,142,0.0,0.0,76,0.00,,---,0.00,VWS V14.01,2013-03-24 04:53:00,
2013-03-24 00:58:00,73.8,65.0,30.03,SSE,149,0.0,0.0,74,0.00,,---,0.00,VWS V14.01,2013-03-24 04:58:00,
2013-03-24 01:04:00,73.6,63.6,30.03,SE,124,0.0,2.7,71,0.00,,---,0.00,VWS V14.01,2013-03-24 05:04:00,
2013-03-24 01:09:00,73.4,63.8,30.03,SE,130,0.0,0.0,72,0.00,,---,0.00,VWS V14.01,2013-03-24 05:09:00,
2013-03-24 01:14:00,73.2,63.3,30.03,ESE,122,0.0,0.0,71,0.00,,---,0.00,VWS V14.01,2013-03-24 05:14:00,
2013-03-24 01:19:00,73.0,63.5,30.03,SE,128,3.1,3.6,72,0.00,,---,0.00,VWS V14.01,2013-03-24 05:19:00,
2013-03-24 01:24:00,72.9,64.1,30.00,ESE,117,0.0,2.7,74,0.00,,---,0.00,VWS V14.01,2013-03-24 05:24:00,
2013-03-24 01:29:00,72.7,63.9,30.00,ESE,117,0.0,0.0,74,0.00,,---,0.00,VWS V14.01,2013-03-24 05:29:00,
2013-03-24 01:34:00,72.7,64.7,30.00,SE,136,0.0,0.0,76,0.00,,---,0.00,VWS V14.01,2013-03-24 05:34:00,
2013-03-24 01:39:00,72.7,65.1,30.00,SE,139,3.6,3.6,77,0.00,,---,0.00,VWS V14.01,2013-03-24 05:39:00,
2013-03-24 01:44:00,72.7,65.4,30.00,SE,144,0.0,0.0,78,0.00,,---,0.00,VWS V14.01,2013-03-24 05:44:00,
2013-03-24 01:50:00,72.3,65.1,30.00,SE,140,4.0,4.0,78,0.00,,---,0.00,VWS V14.01,2013-03-24 05:50:00,
2013-03-24 01:55:00,72.3,65.1,30.00,SE,126,2.7,2.7,78,0.00,,---,0.00,VWS V14.01,2013-03-24 05:55:00,
2013-03-24 02:00:00,72.1,65.6,30.00,SSE,149,0.0,2.7,80,0.00,,---,0.00,VWS V14.01,2013-03-24 06:00:00,
2013-03-24 02:05:00,72.1,66.0,30.00,SE,127,2.7,2.7,81,0.00,,---,0.00,VWS V14.01,2013-03-24 06:05:00,
2013-03-24 02:10:00,72.0,65.8,30.00,SE,142,0.0,3.6,81,0.00,,---,0.00,VWS V14.01,2013-03-24 06:10:00,
2013-03-24 02:15:00,72.0,65.8,30.00,SE,137,0.0,0.0,81,0.00,,---,0.00,VWS V14.01,2013-03-24 06:15:00,
2013-03-24 02:21:00,71.8,66.0,30.00,SE,135,2.7,3.6,82,0.00,,---,0.00,VWS V14.01,2013-03-24 06:21:00,
2013-03-24 02:26:00,71.6,66.5,30.00,SE,138,0.0,0.0,84,0.00,,---,0.00,VWS V14.01,2013-03-24 06:26:00,
2013-03-24 02:31:00,71.4,66.3,30.00,SE,141,3.1,3.1,84,0.00,,---,0.00,VWS V14.01,2013-03-24 06:31:00,
2013-03-24 02:36:00,71.2,66.8,30.00,ESE,122,2.2,2.2,86,0.00,,---,0.00,VWS V14.01,2013-03-24 06:36:00,
2013-03-24 02:41:00,71.6,67.9,30.00,SE,137,2.7,2.7,88,0.00,,---,0.00,VWS V14.01,2013-03-24 06:41:00,
2013-03-24 02:47:00,71.4,67.7,30.00,SE,135,2.2,2.2,88,0.00,,---,0.00,VWS V14.01,2013-03-24 06:47:00,
2013-03-24 02:52:00,71.2,67.5,30.00,SE,126,2.7,2.7,88,0.00,,---,0.00,VWS V14.01,2013-03-24 06:52:00,
2013-03-24 02:57:00,71.4,68.3,29.97,SSE,158,4.5,4.5,90,0.00,,---,0.00,VWS V14.01,2013-03-24 06:57:00,
2013-03-24 03:02:00,71.4,68.7,29.97,SE,138,4.0,4.0,91,0.00,,---,0.00,VWS V14.01,2013-03-24 07:02:00,
2013-03-24 03:07:00,71.8,69.3,29.97,SE,125,3.6,3.6,92,0.00,,---,0.00,VWS V14.01,2013-03-24 07:07:00,
2013-03-24 03:12:00,71.8,69.3,29.97,SE,130,4.0,4.0,92,0.00,,---,0.00,VWS V14.01,2013-03-24 07:12:00,
2013-03-24 03:17:00,71.8,69.7,29.97,SE,141,2.7,2.7,93,0.00,,---,0.00,VWS V14.01,2013-03-24 07:17:00,
2013-03-24 03:22:00,72.0,69.8,29.97,SE,127,3.1,3.1,93,0.00,,---,0.00,VWS V14.01,2013-03-24 07:22:00,
2013-03-24 03:27:00,72.1,70.3,29.97,ESE,117,3.1,6.3,94,0.00,,---,0.00,VWS V14.01,2013-03-24 07:27:00,
2013-03-24 03:33:00,72.1,70.3,29.97,SE,130,2.2,5.4,94,0.00,,---,0.00,VWS V14.01,2013-03-24 07:33:00,
2013-03-24 03:38:00,72.1,70.3,29.97,SE,144,4.0,4.0,94,0.00,,---,0.00,VWS V14.01,2013-03-24 07:38:00,
2013-03-24 03:43:00,72.3,70.8,29.97,South,175,3.1,3.1,95,0.00,,---,0.00,VWS V14.01,2013-03-24 07:43:00,
2013-03-24 03:48:00,72.5,71.0,29.97,ESE,116,0.0,2.7,95,0.00,,---,0.00,VWS V14.01,2013-03-24 07:48:00,
2013-03-24 03:53:00,72.3,70.8,29.97,SSE,148,2.2,2.2,95,0.00,,---,0.00,VWS V14.01,2013-03-24 07:53:00,
2013-03-24 03:59:00,72.0,70.4,29.97,SSE,152,0.0,2.7,95,0.00,,---,0.00,VWS V14.01,2013-03-24 07:59:00,
2013-03-24 04:04:00,72.0,70.4,29.97,SSE,155,2.2,4.0,95,0.00,,---,0.00,VWS V14.01,2013-03-24 08:04:00,
2013-03-24 04:09:00,72.0,70.4,29.97,SE,144,0.0,2.7,95,0.00,,---,0.00,VWS V14.01,2013-03-24 08:09:00,
2013-03-24 04:14:00,72.0,70.4,29.97,SSE,149,0.0,2.7,95,0.00,,---,0.00,VWS V14.01,2013-03-24 08:14:00,
2013-03-24 04:19:00,72.0,70.4,29.97,SSE,149,0.0,0.0,95,0.00,,---,0.00,VWS V14.01,2013-03-24 08:19:00,
2013-03-24 04:24:00,72.0,70.4,29.94,SSE,154,0.0,0.0,95,0.00,,---,0.00,VWS V14.01,2013-03-24 08:24:00,
2013-03-24 04:29:00,72.1,70.6,29.94,SSE,165,2.2,2.2,95,0.00,,---,0.00,VWS V14.01,2013-03-24 08:29:00,
2013-03-24 04:34:00,72.0,70.4,29.94,SE,127,3.1,3.6,95,0.00,,---,0.00,VWS V14.01,2013-03-24 08:34:00,
2013-03-24 04:40:00,72.1,70.6,29.94,SSE,161,2.7,3.6,95,0.00,,---,0.00,VWS V14.01,2013-03-24 08:40:00,
2013-03-24 04:45:00,72.1,70.6,29.94,SE,140,0.0,0.0,95,0.00,,---,0.00,VWS V14.01,2013-03-24 08:45:00,
2013-03-24 04:50:00,72.0,70.4,29.94,SSE,150,0.0,0.0,95,0.00,,---,0.00,VWS V14.01,2013-03-24 08:50:00,
2013-03-24 04:55:00,72.1,70.6,29.94,SSE,148,0.0,3.6,95,0.00,,---,0.00,VWS V14.01,2013-03-24 08:55:00,
2013-03-24 05:00:00,72.1,70.6,29.94,SE,146,3.6,3.6,95,0.00,,---,0.00,VWS V14.01,2013-03-24 09:00:00,
2013-03-24 05:05:00,72.1,70.6,29.94,SSE,166,0.0,3.1,95,0.00,,---,0.00,VWS V14.01,2013-03-24 09:05:00,
2013-03-24 05:10:00,72.1,70.6,29.94,SE,125,2.7,3.1,95,0.00,,---,0.00,VWS V14.01,2013-03-24 09:10:00,
2013-03-24 05:15:00,72.1,70.6,29.94,SE,145,3.6,3.6,95,0.00,,---,0.00,VWS V14.01,2013-03-24 09:15:00,
2013-03-24 05:21:00,72.1,70.6,29.94,SSE,150,0.0,2.7,95,0.00,,---,0.00,VWS V14.01,2013-03-24 09:21:00,
2013-03-24 05:26:00,72.1,70.6,29.94,SSE,158,2.2,3.1,95,0.00,,---,0.00,VWS V14.01,2013-03-24 09:26:00,
2013-03-24 05:31:00,72.1,70.6,29.94,SSE,168,0.0,2.7,95,0.00,,---,0.00,VWS V14.01,2013-03-24 09:31:00,
2013-03-24 05:36:00,72.1,70.6,29.94,South,173,3.1,3.1,95,0.00,,---,0.00,VWS V14.01,2013-03-24 09:36:00,
2013-03-24 05:41:00,72.1,70.6,29.94,SE,136,0.0,0.0,95,0.00,,---,0.00,VWS V14.01,2013-03-24 09:41:00,
2013-03-24 05:46:00,72.3,71.1,29.94,SE,136,3.6,3.6,96,0.00,,---,0.00,VWS V14.01,2013-03-24 09:46:00,
2013-03-24 05:52:00,72.3,71.1,29.94,SSE,148,2.7,2.7,96,0.00,,---,0.00,VWS V14.01,2013-03-24 09:52:00,
2013-03-24 05:57:00,72.1,70.9,29.94,SSE,167,2.7,3.6,96,0.00,,---,0.00,VWS V14.01,2013-03-24 09:57:00,
2013-03-24 06:02:00,72.3,71.1,29.94,ESE,123,2.7,2.7,96,0.00,,---,0.00,VWS V14.01,2013-03-24 10:02:00,
2013-03-24 06:07:00,72.1,70.6,29.94,South,184,3.1,3.1,95,0.00,,---,0.00,VWS V14.01,2013-03-24 10:07:00,
2013-03-24 06:12:00,72.3,71.1,29.94,SSE,159,3.1,3.6,96,0.00,,---,0.00,VWS V14.01,2013-03-24 10:12:00,
2013-03-24 06:17:00,72.3,71.1,29.94,South,178,0.0,0.0,96,0.00,,---,0.00,VWS V14.01,2013-03-24 10:17:00,
2013-03-24 06:22:00,72.3,70.8,29.94,SSW,201,0.0,2.2,95,0.00,,---,0.00,VWS V14.01,2013-03-24 10:22:00,
2013-03-24 06:27:00,72.3,70.8,29.94,ESE,106,2.2,2.2,95,0.00,,---,0.00,VWS V14.01,2013-03-24 10:27:00,
2013-03-24 06:32:00,72.3,71.1,29.94,South,190,0.0,0.0,96,0.00,,---,0.00,VWS V14.01,2013-03-24 10:32:00,
2013-03-24 06:38:00,72.3,70.8,29.94,SE,134,4.0,4.0,95,0.00,,---,0.00,VWS V14.01,2013-03-24 10:38:00,
2013-03-24 06:43:00,72.3,71.1,29.94,SSE,159,3.1,3.1,96,0.00,,---,0.00,VWS V14.01,2013-03-24 10:43:00,
2013-03-24 06:48:00,72.5,71.3,29.94,South,176,4.9,4.9,96,0.00,,---,0.00,VWS V14.01,2013-03-24 10:48:00,
2013-03-24 06:53:00,72.5,71.3,29.94,SSE,156,3.1,3.1,96,0.00,,---,0.00,VWS V14.01,2013-03-24 10:53:00,
2013-03-24 06:58:00,72.5,71.3,29.94,South,191,2.2,2.2,96,0.00,,---,0.00,VWS V14.01,2013-03-24 10:58:00,
2013-03-24 07:03:00,72.3,71.1,29.94,SSW,202,2.7,2.7,96,0.00,,---,0.00,VWS V14.01,2013-03-24 11:03:00,
2013-03-24 07:09:00,72.3,70.8,29.91,SW,218,0.0,0.0,95,0.00,,---,0.00,VWS V14.01,2013-03-24 11:09:00,
2013-03-24 07:14:00,72.5,71.0,29.91,South,171,8.1,8.1,95,0.00,,---,0.00,VWS V14.01,2013-03-24 11:14:00,
2013-03-24 07:19:00,72.5,71.0,29.91,SSE,164,3.1,3.1,95,0.00,,---,0.00,VWS V14.01,2013-03-24 11:19:00,
2013-03-24 07:24:00,72.5,71.0,29.91,SSW,195,0.0,0.0,95,0.00,,---,0.00,VWS V14.01,2013-03-24 11:24:00,
2013-03-24 07:29:00,72.5,71.0,29.91,SSW,209,3.1,3.1,95,0.00,,---,0.00,VWS V14.01,2013-03-24 11:29:00,
2013-03-24 07:34:00,72.7,71.2,29.91,South,172,4.9,4.9,95,0.00,,---,0.00,VWS V14.01,2013-03-24 11:34:00,
2013-03-24 07:40:00,72.9,71.3,29.91,SE,130,2.7,2.7,95,0.00,,---,0.00,VWS V14.01,2013-03-24 11:40:00,
2013-03-24 07:45:00,72.9,71.3,29.91,SW,214,0.0,0.0,95,0.00,,---,0.00,VWS V14.01,2013-03-24 11:45:00,
2013-03-24 07:50:00,72.7,71.2,29.91,SE,133,2.7,3.1,95,0.00,,---,0.00,VWS V14.01,2013-03-24 11:50:00,
2013-03-24 07:55:00,72.9,71.3,29.91,South,172,3.1,3.1,95,0.00,,---,0.00,VWS V14.01,2013-03-24 11:55:00,
2013-03-24 08:00:00,73.0,71.5,29.91,South,180,5.4,5.4,95,0.00,,---,0.00,VWS V14.01,2013-03-24 12:00:00,
2013-03-24 08:05:00,73.2,71.7,29.91,SSE,150,0.0,0.0,95,0.00,,---,0.00,VWS V14.01,2013-03-24 12:05:00,
2013-03-24 08:10:00,73.6,72.1,29.91,SSW,199,0.0,0.0,95,0.00,,---,0.00,VWS V14.01,2013-03-24 12:10:00,
2013-03-24 08:15:00,73.6,72.1,29.91,SE,137,4.5,4.5,95,0.00,,---,0.00,VWS V14.01,2013-03-24 12:15:00,
2013-03-24 08:20:00,73.9,71.8,29.91,SSE,166,5.8,5.8,93,0.00,,---,0.00,VWS V14.01,2013-03-24 12:20:00,
2013-03-24 08:26:00,73.9,71.5,29.91,SSW,201,0.0,0.0,92,0.00,,---,0.00,VWS V14.01,2013-03-24 12:26:00,
2013-03-24 08:31:00,74.1,70.7,29.91,SE,129,2.7,3.1,89,0.00,,---,0.00,VWS V14.01,2013-03-24 12:31:00,
2013-03-24 08:36:00,74.8,60.5,29.91,SW,217,5.8,5.8,61,0.00,,---,0.00,VWS V14.01,2013-03-24 12:36:00,
2013-03-24 08:41:00,74.8,60.5,29.91,South,189,3.1,3.1,61,0.00,,---,0.00,VWS V14.01,2013-03-24 12:41:00,
2013-03-24 08:46:00,77.5,53.9,29.91,South,169,2.7,2.7,44,0.00,,---,0.00,VWS V14.01,2013-03-24 12:46:00,
2013-03-24 08:52:00,78.6,53.0,29.91,NNE,16,0.0,0.0,41,0.00,,---,0.00,VWS V14.01,2013-03-24 12:52:00,
2013-03-24 08:57:00,78.8,51.8,29.91,SSW,209,4.0,8.3,39,0.00,,---,0.00,VWS V14.01,2013-03-24 12:57:00,
2013-03-24 09:02:00,79.9,50.6,29.91,SSW,192,3.1,3.1,36,0.00,,---,0.00,VWS V14.01,2013-03-24 13:02:00,
2013-03-24 09:07:00,80.1,50.7,29.91,ESE,113,3.6,3.6,36,0.00,,---,0.00,VWS V14.01,2013-03-24 13:07:00,
2013-03-24 09:12:00,80.6,50.5,29.91,South,184,2.7,2.7,35,0.00,,---,0.00,VWS V14.01,2013-03-24 13:12:00,
2013-03-24 09:18:00,81.0,50.0,29.91,South,190,8.3,8.3,34,0.00,,---,0.00,VWS V14.01,2013-03-24 13:18:00,
2013-03-24 09:23:00,81.3,50.3,29.91,NW,315,5.4,5.4,34,0.00,,---,0.00,VWS V14.01,2013-03-24 13:23:00,
2013-03-24 09:28:00,81.3,51.1,29.91,NNW,339,3.1,5.4,35,0.00,,---,0.00,VWS V14.01,2013-03-24 13:28:00,
2013-03-24 09:33:00,81.7,50.6,29.91,North,353,4.0,4.0,34,0.00,,---,0.00,VWS V14.01,2013-03-24 13:33:00,
2013-03-24 09:39:00,82.6,51.4,29.91,South,184,3.1,3.1,34,0.00,,---,0.00,VWS V14.01,2013-03-24 13:39:00,
2013-03-24 09:44:00,82.6,51.4,29.91,WNW,285,2.2,2.2,34,0.00,,---,0.00,VWS V14.01,2013-03-24 13:44:00,
2013-03-24 09:49:00,85.6,49.8,29.91,NE,51,2.7,2.7,29,0.00,,---,0.00,VWS V14.01,2013-03-24 13:49:00,
2013-03-24 09:54:00,84.7,49.0,29.91,West,271,3.1,5.8,29,0.00,,---,0.00,VWS V14.01,2013-03-24 13:54:00,
2013-03-24 09:59:00,84.0,49.3,29.91,SW,229,3.1,3.1,30,0.00,,---,0.00,VWS V14.01,2013-03-24 13:59:00,
2013-03-24 10:04:00,82.9,49.2,29.91,NNW,336,4.0,4.0,31,0.00,,---,0.00,VWS V14.01,2013-03-24 14:04:00,
2013-03-24 10:09:00,84.6,48.8,29.91,NE,52,2.7,2.7,29,0.00,,---,0.00,VWS V14.01,2013-03-24 14:09:00,
2013-03-24 10:15:00,84.9,49.2,29.91,SSE,167,3.1,3.1,29,0.00,,---,0.00,VWS V14.01,2013-03-24 14:15:00,
2013-03-24 10:20:00,84.0,49.3,29.91,SSW,212,10.1,10.1,30,0.00,,---,0.00,VWS V14.01,2013-03-24 14:20:00,
2013-03-24 10:25:00,83.5,48.8,29.91,South,179,0.0,4.0,30,0.00,,---,0.00,VWS V14.01,2013-03-24 14:25:00,
2013-03-24 10:30:00,83.5,49.7,29.91,SSW,204,4.0,4.0,31,0.00,,---,0.00,VWS V14.01,2013-03-24 14:30:00,
2013-03-24 10:35:00,83.7,49.0,29.91,SE,140,4.0,4.0,30,0.00,,---,0.00,VWS V14.01,2013-03-24 14:35:00,
2013-03-24 10:40:00,83.7,49.0,29.91,SW,217,4.0,4.0,30,0.00,,---,0.00,VWS V14.01,2013-03-24 14:40:00,
2013-03-24 10:45:00,83.8,48.2,29.91,ESE,115,4.9,4.9,29,0.00,,---,0.00,VWS V14.01,2013-03-24 14:45:00,
2013-03-24 10:51:00,83.8,48.2,29.91,ENE,70,3.1,3.6,29,0.00,,---,0.00,VWS V14.01,2013-03-24 14:51:00,
2013-03-24 10:56:00,87.6,46.4,29.91,South,185,2.7,5.4,24,0.00,,---,0.00,VWS V14.01,2013-03-24 14:56:00,
2013-03-24 11:01:00,86.5,45.5,29.91,SSW,199,4.5,8.1,24,0.00,,---,0.00,VWS V14.01,2013-03-24 15:01:00,
2013-03-24 11:06:00,87.8,45.4,29.91,SW,220,5.4,7.6,23,0.00,,---,0.00,VWS V14.01,2013-03-24 15:06:00,
2013-03-24 11:11:00,88.2,45.7,29.91,SSE,165,7.6,7.6,23,0.00,,---,0.00,VWS V14.01,2013-03-24 15:11:00,
2013-03-24 11:16:00,89.1,44.1,29.91,WNW,292,3.1,5.4,21,0.00,,---,0.00,VWS V14.01,2013-03-24 15:16:00,
2013-03-24 11:21:00,91.2,44.6,29.91,WSW,242,7.6,7.6,20,0.00,,---,0.00,VWS V14.01,2013-03-24 15:21:00,
2013-03-24 11:27:00,91.2,44.6,29.91,ESE,113,2.7,2.7,20,0.00,,---,0.00,VWS V14.01,2013-03-24 15:27:00,
2013-03-24 11:32:00,88.5,44.9,29.91,WSW,252,3.1,3.6,22,0.00,,---,0.00,VWS V14.01,2013-03-24 15:32:00,
2013-03-24 11:37:00,87.1,44.8,29.91,SSW,193,3.6,4.0,23,0.00,,---,0.00,VWS V14.01,2013-03-24 15:37:00,
2013-03-24 11:42:00,86.2,45.2,29.91,North,9,3.1,3.1,24,0.00,,---,0.00,VWS V14.01,2013-03-24 15:42:00,
2013-03-24 11:47:00,87.6,46.4,29.91,SSW,210,5.8,5.8,24,0.00,,---,0.00,VWS V14.01,2013-03-24 15:47:00,
2013-03-24 11:53:00,89.6,43.3,29.91,South,174,5.4,5.4,20,0.00,,---,0.00,VWS V14.01,2013-03-24 15:53:00,
2013-03-24 11:58:00,91.0,44.4,29.91,ESE,122,0.0,0.0,20,0.00,,---,0.00,VWS V14.01,2013-03-24 15:58:00,
2013-03-24 12:03:00,90.7,45.4,29.91,SW,236,3.1,3.1,21,0.00,,---,0.00,VWS V14.01,2013-03-24 16:03:00,
2013-03-24 12:08:00,90.3,43.8,29.91,West,262,5.4,5.4,20,0.00,,---,0.00,VWS V14.01,2013-03-24 16:08:00,
2013-03-24 12:13:00,92.5,44.3,29.91,NNE,30,2.7,5.4,19,0.00,,---,0.00,VWS V14.01,2013-03-24 16:13:00,
2013-03-24 12:18:00,93.7,42.4,29.91,SSE,148,5.8,5.8,17,0.00,,---,0.00,VWS V14.01,2013-03-24 16:18:00,
2013-03-24 12:24:00,93.9,44.0,29.91,SW,217,3.6,8.3,18,0.00,,---,0.00,VWS V14.01,2013-03-24 16:24:00,
2013-03-24 12:29:00,96.4,43.0,29.91,SSE,165,3.1,4.9,16,0.00,,---,0.00,VWS V14.01,2013-03-24 16:29:00,
2013-03-24 12:34:00,95.4,43.7,29.91,NE,41,4.0,4.0,17,0.00,,---,0.00,VWS V14.01,2013-03-24 16:34:00,
2013-03-24 12:39:00,97.0,43.4,29.91,SW,234,3.1,3.1,16,0.00,,---,0.00,VWS V14.01,2013-03-24 16:39:00,
2013-03-24 12:44:00,92.7,43.0,29.91,WSW,247,4.0,4.0,18,0.00,,---,0.00,VWS V14.01,2013-03-24 16:44:00,
2013-03-24 12:50:00,92.1,42.6,29.91,SW,234,3.1,3.1,18,0.00,,---,0.00,VWS V14.01,2013-03-24 16:50:00,
2013-03-24 12:55:00,90.9,41.5,29.91,SW,216,8.3,8.3,18,0.00,,---,0.00,VWS V14.01,2013-03-24 16:55:00,
2013-03-24 13:00:00,92.3,42.7,29.91,SW,221,7.2,7.2,18,0.00,,---,0.00,VWS V14.01,2013-03-24 17:00:00,
2013-03-24 13:05:00,91.6,43.5,29.91,SW,235,5.4,8.1,19,0.00,,---,0.00,VWS V14.01,2013-03-24 17:05:00,
2013-03-24 13:10:00,93.7,43.9,29.91,West,270,6.3,8.7,18,0.00,,---,0.00,VWS V14.01,2013-03-24 17:10:00,
2013-03-24 13:15:00,96.3,44.4,29.91,ENE,70,4.9,4.9,17,0.00,,---,0.00,VWS V14.01,2013-03-24 17:15:00,
2013-03-24 13:20:00,94.8,43.3,29.88,West,268,2.7,6.3,17,0.00,,---,0.00,VWS V14.01,2013-03-24 17:20:00,
2013-03-24 13:25:00,91.9,42.4,29.88,West,263,4.5,4.5,18,0.00,,---,0.00,VWS V14.01,2013-03-24 17:25:00,
2013-03-24 13:31:00,92.8,43.2,29.88,SW,223,5.4,5.4,18,0.00,,---,0.00,VWS V14.01,2013-03-24 17:31:00,
2013-03-24 13:36:00,93.9,42.5,29.88,SSE,147,4.0,4.0,17,0.00,,---,0.00,VWS V14.01,2013-03-24 17:36:00,
2013-03-24 13:41:00,95.7,44.0,29.88,SW,223,5.4,5.4,17,0.00,,---,0.00,VWS V14.01,2013-03-24 17:41:00,
2013-03-24 13:46:00,92.8,43.2,29.88,SSE,154,3.1,3.1,18,0.00,,---,0.00,VWS V14.01,2013-03-24 17:46:00,
2013-03-24 13:51:00,93.7,43.9,29.88,WSW,241,17.4,17.4,18,0.00,,---,0.00,VWS V14.01,2013-03-24 17:51:00,
2013-03-24 13:57:00,96.8,43.3,29.88,WSW,242,12.8,12.8,16,0.00,,---,0.00,VWS V14.01,2013-03-24 17:57:00,
2013-03-24 14:02:00,97.5,43.8,29.88,South,176,4.9,4.9,16,0.00,,---,0.00,VWS V14.01,2013-03-24 18:02:00,
2013-03-24 14:07:00,97.0,43.4,29.88,SSW,201,5.4,5.4,16,0.00,,---,0.00,VWS V14.01,2013-03-24 18:07:00,
2013-03-24 14:12:00,96.4,43.0,29.88,SW,218,4.0,4.0,16,0.00,,---,0.00,VWS V14.01,2013-03-24 18:12:00,
2013-03-24 14:18:00,96.1,42.7,29.88,ESE,102,3.6,5.4,16,0.00,,---,0.00,VWS V14.01,2013-03-24 18:18:00,
2013-03-24 14:23:00,94.6,43.1,29.88,WSW,240,2.7,3.6,17,0.00,,---,0.00,VWS V14.01,2013-03-24 18:23:00,
2013-03-24 14:28:00,96.4,43.0,29.88,WNW,285,5.4,5.4,16,0.00,,---,0.00,VWS V14.01,2013-03-24 18:28:00,
2013-03-24 14:33:00,97.3,43.7,29.88,SW,236,7.6,7.6,16,0.00,,---,0.00,VWS V14.01,2013-03-24 18:33:00,
2013-03-24 14:38:00,97.9,44.1,29.88,SSE,163,2.2,5.8,16,0.00,,---,0.00,VWS V14.01,2013-03-24 18:38:00,
2013-03-24 14:44:00,99.3,45.3,29.88,SE,129,2.7,10.5,16,0.00,,---,0.00,VWS V14.01,2013-03-24 18:44:00,
2013-03-24 14:49:00,96.4,44.6,29.88,SW,220,13.2,13.2,17,0.00,,---,0.00,VWS V14.01,2013-03-24 18:49:00,
2013-03-24 14:54:00,96.8,43.3,29.85,SW,229,8.3,8.3,16,0.00,,---,0.00,VWS V14.01,2013-03-24 18:54:00,
2013-03-24 14:59:00,96.8,43.3,29.85,SSW,206,3.1,3.1,16,0.00,,---,0.00,VWS V14.01,2013-03-24 18:59:00,
2013-03-24 15:04:00,99.1,45.1,29.85,NNE,13,2.2,4.0,16,0.00,,---,0.00,VWS V14.01,2013-03-24 19:04:00,
2013-03-24 15:09:00,99.7,45.5,29.85,SSW,203,5.4,5.4,16,0.00,,---,0.00,VWS V14.01,2013-03-24 19:09:00,
2013-03-24 15:15:00,95.5,43.8,29.85,NNE,29,2.7,3.1,17,0.00,,---,0.00,VWS V14.01,2013-03-24 19:15:00,
2013-03-24 15:20:00,93.6,43.7,29.85,West,264,5.8,5.8,18,0.00,,---,0.00,VWS V14.01,2013-03-24 19:20:00,
2013-03-24 15:25:00,94.8,43.3,29.85,West,274,4.5,4.5,17,0.00,,---,0.00,VWS V14.01,2013-03-24 19:25:00,
2013-03-24 15:30:00,94.5,44.5,29.85,South,182,3.1,9.6,18,0.00,,---,0.00,VWS V14.01,2013-03-24 19:30:00,
2013-03-24 15:35:00,96.1,44.3,29.85,NE,36,5.8,5.8,17,0.00,,---,0.00,VWS V14.01,2013-03-24 19:35:00,
2013-03-24 15:40:00,95.4,43.7,29.85,WSW,243,8.3,8.3,17,0.00,,---,0.00,VWS V14.01,2013-03-24 19:40:00,
2013-03-24 15:45:00,92.7,41.5,29.85,SSW,206,4.0,4.0,17,0.00,,---,0.00,VWS V14.01,2013-03-24 19:45:00,
2013-03-24 15:51:00,93.6,42.2,29.85,WSW,255,14.5,14.5,17,0.00,,---,0.00,VWS V14.01,2013-03-24 19:51:00,
2013-03-24 15:56:00,93.9,42.5,29.85,WSW,253,10.5,10.5,17,0.00,,---,0.00,VWS V14.01,2013-03-24 19:56:00,
2013-03-24 16:01:00,96.6,43.1,29.85,WSW,249,3.1,4.0,16,0.00,,---,0.00,VWS V14.01,2013-03-24 20:01:00,
2013-03-24 16:06:00,94.5,43.0,29.85,SSW,206,4.0,4.0,17,0.00,,---,0.00,VWS V14.01,2013-03-24 20:06:00,
2013-03-24 16:11:00,94.5,43.0,29.83,SW,222,3.1,3.6,17,0.00,,---,0.00,VWS V14.01,2013-03-24 20:11:00,
2013-03-24 16:16:00,96.3,42.8,29.83,WNW,289,2.7,14.5,16,0.00,,---,0.00,VWS V14.01,2013-03-24 20:16:00,
2013-03-24 16:21:00,91.4,42.0,29.83,West,259,4.0,4.0,18,0.00,,---,0.00,VWS V14.01,2013-03-24 20:21:00,
2013-03-24 16:26:00,93.0,41.8,29.83,West,263,11.0,11.4,17,0.00,,---,0.00,VWS V14.01,2013-03-24 20:26:00,
2013-03-24 16:31:00,91.8,42.3,29.83,SSW,198,8.3,8.3,18,0.00,,---,0.00,VWS V14.01,2013-03-24 20:31:00,
2013-03-24 16:36:00,91.9,42.4,29.85,West,265,12.8,12.8,18,0.00,,---,0.00,VWS V14.01,2013-03-24 20:36:00,
2013-03-24 16:41:00,88.0,41.9,29.85,SW,235,6.3,6.3,20,0.00,,---,0.00,VWS V14.01,2013-03-24 20:41:00,
2013-03-24 16:47:00,88.9,41.3,29.85,WNW,283,4.9,11.0,19,0.00,,---,0.00,VWS V14.01,2013-03-24 20:47:00,
2013-03-24 16:52:00,89.6,43.3,29.85,West,280,8.7,8.7,20,0.00,,---,0.00,VWS V14.01,2013-03-24 20:52:00,
2013-03-24 16:57:00,90.3,42.5,29.85,SW,225,5.8,8.3,19,0.00,,---,0.00,VWS V14.01,2013-03-24 20:57:00,
2013-03-24 17:02:00,88.5,42.4,29.85,West,263,3.6,3.6,20,0.00,,---,0.00,VWS V14.01,2013-03-24 21:02:00,
2013-03-24 17:07:00,91.6,43.5,29.85,WSW,242,3.6,3.6,19,0.00,,---,0.00,VWS V14.01,2013-03-24 21:07:00,
2013-03-24 17:12:00,95.0,43.4,29.85,WSW,241,5.4,5.4,17,0.00,,---,0.00,VWS V14.01,2013-03-24 21:12:00,
2013-03-24 17:17:00,94.5,43.0,29.85,SW,231,15.4,15.4,17,0.00,,---,0.00,VWS V14.01,2013-03-24 21:17:00,
2013-03-24 17:22:00,93.2,42.0,29.83,WSW,249,6.3,8.3,17,0.00,,---,0.00,VWS V14.01,2013-03-24 21:22:00,
2013-03-24 17:28:00,92.1,42.6,29.83,South,186,6.3,8.7,18,0.00,,---,0.00,VWS V14.01,2013-03-24 21:28:00,
2013-03-24 17:33:00,92.8,43.2,29.83,SSW,195,8.1,8.1,18,0.00,,---,0.00,VWS V14.01,2013-03-24 21:33:00,
2013-03-24 17:38:00,90.7,41.4,29.83,WSW,250,7.6,13.6,18,0.00,,---,0.00,VWS V14.01,2013-03-24 21:38:00,
2013-03-24 17:43:00,89.2,41.6,29.83,SW,229,7.6,10.1,19,0.00,,---,0.00,VWS V14.01,2013-03-24 21:43:00,
2013-03-24 17:48:00,90.0,42.2,29.83,WSW,244,5.4,5.4,19,0.00,,---,0.00,VWS V14.01,2013-03-24 21:48:00,
2013-03-24 17:53:00,90.5,42.7,29.83,West,270,2.7,2.7,19,0.00,,---,0.00,VWS V14.01,2013-03-24 21:53:00,
2013-03-24 17:58:00,91.0,43.1,29.83,NW,319,2.7,3.6,19,0.00,,---,0.00,VWS V14.01,2013-03-24 21:58:00,
2013-03-24 18:03:00,91.0,43.1,29.83,WSW,243,12.3,12.3,19,0.00,,---,0.00,VWS V14.01,2013-03-24 22:03:00,
2013-03-24 18:08:00,87.1,42.5,29.85,SSW,209,4.9,4.9,21,0.00,,---,0.00,VWS V14.01,2013-03-24 22:08:00,
2013-03-24 18:14:00,86.2,42.9,29.85,SSW,200,12.3,16.3,22,0.00,,---,0.00,VWS V14.01,2013-03-24 22:14:00,
2013-03-24 18:19:00,86.2,42.9,29.85,West,265,7.6,7.6,22,0.00,,---,0.00,VWS V14.01,2013-03-24 22:19:00,
2013-03-24 18:24:00,86.5,43.2,29.83,SW,224,2.7,14.1,22,0.00,,---,0.00,VWS V14.01,2013-03-24 22:24:00,
2013-03-24 18:29:00,84.6,44.9,29.83,WSW,248,8.1,8.1,25,0.00,,---,0.00,VWS V14.01,2013-03-24 22:29:00,
2013-03-24 18:34:00,84.2,44.6,29.83,WSW,241,5.4,5.4,25,0.00,,---,0.00,VWS V14.01,2013-03-24 22:34:00,
2013-03-24 18:39:00,84.6,45.9,29.83,WSW,237,5.4,5.4,26,0.00,,---,0.00,VWS V14.01,2013-03-24 22:39:00,
2013-03-24 18:44:00,84.4,45.8,29.83,SSW,203,4.0,4.9,26,0.00,,---,0.00,VWS V14.01,2013-03-24 22:44:00,
2013-03-24 18:50:00,83.8,47.3,29.83,SW,234,3.6,5.4,28,0.00,,---,0.00,VWS V14.01,2013-03-24 22:50:00,
2013-03-24 18:55:00,82.6,47.1,29.85,SW,229,3.1,3.1,29,0.00,,---,0.00,VWS V14.01,2013-03-24 22:55:00,
2013-03-24 19:00:00,81.3,47.0,29.85,SW,233,4.0,13.2,30,0.00,,---,0.00,VWS V14.01,2013-03-24 23:00:00,
2013-03-24 19:05:00,80.6,47.2,29.85,West,260,5.8,5.8,31,0.00,,---,0.00,VWS V14.01,2013-03-24 23:05:00,
2013-03-24 19:10:00,80.6,47.2,29.85,WNW,292,3.6,8.3,31,0.00,,---,0.00,VWS V14.01,2013-03-24 23:10:00,
2013-03-24 19:15:00,80.2,46.9,29.85,West,272,10.5,10.5,31,0.00,,---,0.00,VWS V14.01,2013-03-24 23:15:00,
2013-03-24 19:20:00,80.1,47.6,29.85,WSW,244,5.8,5.8,32,0.00,,---,0.00,VWS V14.01,2013-03-24 23:20:00,
2013-03-24 19:25:00,79.2,47.6,29.88,West,263,3.6,3.6,33,0.00,,---,0.00,VWS V14.01,2013-03-24 23:25:00,
2013-03-24 19:30:00,78.8,48.1,29.88,WSW,237,8.3,8.3,34,0.00,,---,0.00,VWS V14.01,2013-03-24 23:30:00,
2013-03-24 19:35:00,78.4,48.5,29.88,WSW,252,3.6,10.1,35,0.00,,---,0.00,VWS V14.01,2013-03-24 23:35:00,
2013-03-24 19:41:00,78.1,49.0,29.88,SW,229,5.8,6.3,36,0.00,,---,0.00,VWS V14.01,2013-03-24 23:41:00,
2013-03-24 19:46:00,77.7,49.4,29.88,WSW,254,2.7,2.7,37,0.00,,---,0.00,VWS V14.01,2013-03-24 23:46:00,
2013-03-24 19:51:00,77.4,49.1,29.88,WSW,257,5.8,5.8,37,0.00,,---,0.00,VWS V14.01,2013-03-24 23:51:00,
2013-03-24 19:56:00,77.2,49.6,29.88,WSW,240,2.2,2.2,38,0.00,,---,0.00,VWS V14.01,2013-03-24 23:56:00,
2013-03-24 20:01:00,77.2,50.3,29.88,WSW,254,6.3,6.3,39,0.00,,---,0.00,VWS V14.01,2013-03-25 00:01:00,
2013-03-24 20:07:00,76.8,50.7,29.88,West,262,0.0,2.7,40,0.00,,---,0.00,VWS V14.01,2013-03-25 00:07:00,
2013-03-24 20:12:00,76.8,50.7,29.88,West,278,2.2,2.2,40,0.00,,---,0.00,VWS V14.01,2013-03-25 00:12:00,
2013-03-24 20:17:00,76.6,50.5,29.88,SW,219,2.7,2.7,40,0.00,,---,0.00,VWS V14.01,2013-03-25 00:17:00,
2013-03-24 20:22:00,76.8,51.4,29.88,WSW,251,0.0,5.4,41,0.00,,---,0.00,VWS V14.01,2013-03-25 00:22:00,
2013-03-24 20:27:00,77.2,51.0,29.88,WSW,258,0.0,0.0,40,0.00,,---,0.00,VWS V14.01,2013-03-25 00:27:00,
2013-03-24 20:33:00,77.4,51.2,29.88,SW,233,2.2,3.1,40,0.00,,---,0.00,VWS V14.01,2013-03-25 00:33:00,
2013-03-24 20:38:00,77.4,51.2,29.88,SW,221,0.0,3.1,40,0.00,,---,0.00,VWS V14.01,2013-03-25 00:38:00,
2013-03-24 20:43:00,77.4,51.2,29.88,SW,218,3.1,3.1,40,0.00,,---,0.00,VWS V14.01,2013-03-25 00:43:00,
2013-03-24 20:48:00,77.4,51.2,29.88,WSW,250,2.7,3.6,40,0.00,,---,0.00,VWS V14.01,2013-03-25 00:48:00,
2013-03-24 20:53:00,77.2,51.0,29.88,WSW,250,5.8,5.8,40,0.00,,---,0.00,VWS V14.01,2013-03-25 00:53:00,
2013-03-24 20:58:00,77.4,51.2,29.88,West,276,0.0,0.0,40,0.00,,---,0.00,VWS V14.01,2013-03-25 00:58:00,
2013-03-24 21:04:00,77.2,51.0,29.88,West,262,0.0,3.1,40,0.00,,---,0.00,VWS V14.01,2013-03-25 01:04:00,
2013-03-24 21:09:00,77.2,51.0,29.88,SW,234,0.0,2.7,40,0.00,,---,0.00,VWS V14.01,2013-03-25 01:09:00,
2013-03-24 21:14:00,77.2,51.0,29.88,West,262,3.1,3.1,40,0.00,,---,0.00,VWS V14.01,2013-03-25 01:14:00,
2013-03-24 21:19:00,77.2,51.0,29.88,West,268,0.0,0.0,40,0.00,,---,0.00,VWS V14.01,2013-03-25 01:19:00,
2013-03-24 21:24:00,77.4,51.2,29.91,WNW,290,0.0,0.0,40,0.00,,---,0.00,VWS V14.01,2013-03-25 01:24:00,
2013-03-24 21:29:00,77.4,51.2,29.91,SSW,200,0.0,0.0,40,0.00,,---,0.00,VWS V14.01,2013-03-25 01:29:00,
2013-03-24 21:34:00,77.4,51.2,29.91,WSW,242,0.0,0.0,40,0.00,,---,0.00,VWS V14.01,2013-03-25 01:34:00,
2013-03-24 21:39:00,77.4,51.2,29.91,WSW,242,3.6,3.6,40,0.00,,---,0.00,VWS V14.01,2013-03-25 01:39:00,
2013-03-24 21:45:00,77.2,51.7,29.91,WSW,249,0.0,0.0,41,0.00,,---,0.00,VWS V14.01,2013-03-25 01:45:00,
2013-03-24 21:50:00,76.6,52.5,29.91,WSW,256,0.0,2.2,43,0.00,,---,0.00,VWS V14.01,2013-03-25 01:50:00,
2013-03-24 21:55:00,76.5,52.3,29.91,WSW,240,0.0,0.0,43,0.00,,---,0.00,VWS V14.01,2013-03-25 01:55:00,
2013-03-24 22:00:00,76.6,52.5,29.91,WNW,298,0.0,0.0,43,0.00,,---,0.00,VWS V14.01,2013-03-25 02:00:00,
2013-03-24 22:05:00,77.0,52.2,29.91,WSW,250,0.0,0.0,42,0.00,,---,0.00,VWS V14.01,2013-03-25 02:05:00,
2013-03-24 22:11:00,77.0,52.2,29.91,WNW,286,0.0,3.1,42,0.00,,---,0.00,VWS V14.01,2013-03-25 02:11:00,
2013-03-24 22:16:00,77.0,52.2,29.91,West,266,0.0,2.2,42,0.00,,---,0.00,VWS V14.01,2013-03-25 02:16:00,
2013-03-24 22:21:00,76.8,52.0,29.91,WSW,252,0.0,0.0,42,0.00,,---,0.00,VWS V14.01,2013-03-25 02:21:00,
2013-03-24 22:26:00,76.8,52.7,29.91,West,266,0.0,2.7,43,0.00,,---,0.00,VWS V14.01,2013-03-25 02:26:00,
2013-03-24 22:31:00,76.8,52.7,29.91,WSW,241,2.2,2.2,43,0.00,,---,0.00,VWS V14.01,2013-03-25 02:31:00,
2013-03-24 22:36:00,76.8,52.7,29.91,West,280,0.0,0.0,43,0.00,,---,0.00,VWS V14.01,2013-03-25 02:36:00,
2013-03-24 22:41:00,76.8,52.7,29.91,SW,226,2.2,3.1,43,0.00,,---,0.00,VWS V14.01,2013-03-25 02:41:00,
2013-03-24 22:46:00,76.8,53.3,29.91,WSW,241,2.7,2.7,44,0.00,,---,0.00,VWS V14.01,2013-03-25 02:46:00,
2013-03-24 22:51:00,76.8,52.7,29.91,WNW,293,0.0,3.6,43,0.00,,---,0.00,VWS V14.01,2013-03-25 02:51:00,
2013-03-24 22:57:00,76.6,52.5,29.91,West,276,2.2,2.2,43,0.00,,---,0.00,VWS V14.01,2013-03-25 02:57:00,
2013-03-24 23:02:00,76.3,53.4,29.91,West,265,2.7,2.7,45,0.00,,---,0.00,VWS V14.01,2013-03-25 03:02:00,
2013-03-24 23:07:00,76.3,53.4,29.91,WSW,253,0.0,0.0,45,0.00,,---,0.00,VWS V14.01,2013-03-25 03:07:00,
2013-03-24 23:12:00,75.4,55.5,29.91,WSW,258,0.0,0.0,50,0.00,,---,0.00,VWS V14.01,2013-03-25 03:12:00,
2013-03-24 23:18:00,74.5,56.8,29.91,West,281,0.0,0.0,54,0.00,,---,0.00,VWS V14.01,2013-03-25 03:18:00,
2013-03-24 23:23:00,73.8,57.6,29.91,WSW,252,0.0,0.0,57,0.00,,---,0.00,VWS V14.01,2013-03-25 03:23:00,
2013-03-24 23:28:00,73.8,59.5,29.91,WSW,252,0.0,0.0,61,0.00,,---,0.00,VWS V14.01,2013-03-25 03:28:00,
2013-03-24 23:33:00,73.8,61.7,29.91,WSW,254,0.0,0.0,66,0.00,,---,0.00,VWS V14.01,2013-03-25 03:33:00,
2013-03-24 23:38:00,73.6,62.0,29.91,WSW,254,0.0,0.0,67,0.00,,---,0.00,VWS V14.01,2013-03-25 03:38:00,
2013-03-24 23:43:00,73.6,63.6,29.91,WSW,255,0.0,0.0,71,0.00,,---,0.00,VWS V14.01,2013-03-25 03:43:00,
2013-03-24 23:48:00,73.8,65.0,29.91,WSW,255,0.0,0.0,74,0.00,,---,0.00,VWS V14.01,2013-03-25 03:48:00,
2013-03-24 23:53:00,73.8,65.7,29.88,WSW,256,0.0,0.0,76,0.00,,---,0.00,VWS V14.01,2013-03-25 03:53:00,
2013-03-24 23:58:00,73.8,66.1,29.88,WSW,256,0.0,0.0,77,0.00,,---,0.00,VWS V14.01,2013-03-25 03:58:00,